• Join FlightAware (Why Join?)
  • Login
  • US Flag 
02:34AM EDT


 

Airport Tracker/Info


-or-


 

Live Flight TrackerFlight Track Log ✈ N3333A ✈ 21-Feb-2014 ✈ KLNA - KCHN

Flight Track Log - Related Links

Times and Time Zones

All times are in EST time to prevent confusion due to time zone crossing. See the N3333A flight status page for this flight to view local times or setup timezone preferences in your user account.

Time Position Orientation Groundspeed Altitude Reporting Facility
EST Latitude Longitude Course Direction KTS MPH feet Rate Location/Type
12:48PM 26.6000 -80.3419 270° West  Level FlightAware Approximate
12:48PM 26.5608 -80.3497 273° West 114 131 5,400  Level Miami Center
12:49PM 26.6018 -80.3855 273° West  Level FlightAware Approximate
12:49PM 26.5600 -80.3869 269° West 120 138 5,900  Level Miami Center
12:50PM 26.6040 -80.4291 273° West  Level FlightAware Approximate
12:50PM 26.5608 -80.4311 271° West 147 169 5,900  Level Miami Center
12:51PM 26.6062 -80.4727 273° West  Level FlightAware Approximate
12:51PM 26.5597 -80.4775 268° West 157 181 5,900  Level Miami Center
12:52PM 26.6084 -80.5163 273° West  Level FlightAware Approximate
12:52PM 26.5628 -80.5242 274° West 157 181 5,900  Level Miami Center
12:53PM 26.6106 -80.5599 273° West  Level FlightAware Approximate
12:53PM 26.5658 -80.5706 274° West 157 181 5,900  Level Miami Center
12:54PM 26.6127 -80.6034 273° West  Level FlightAware Approximate
12:54PM 26.5667 -80.6169 271° West 157 181 5,900  Level Miami Center
12:55PM 26.5697 -80.6636 274° West 157 181 5,900  Level Miami Center
12:56PM 26.5747 -80.7103 277° West 157 181 5,900  Level Miami Center
12:57PM 26.5967 -80.7481 303° West 151 174 5,900  Level Miami Center
12:58PM 26.6311 -80.7864 315° West 158 182 5,900  Level Miami Center
12:59PM 26.6594 -80.8175 316° Northwest 164 189 5,900  Level Miami Center
01:00PM 26.6919 -80.8536 315° West 164 189 5,900  Level Miami Center
01:01PM 26.7264 -80.8942 314° West 164 189 5,900  Level Miami Center
01:02PM 26.7544 -80.9300 311° West 169 194 5,900  Level Miami Center
01:03PM 26.7722 -80.9750 294° West 169 194 5,900  Level Miami Center
01:04PM 26.7856 -81.0172 289° West 160 184 5,900  Level Miami Center
01:05PM 26.8008 -81.0642 290° West 160 184 5,900  Level Miami Center
01:06PM 26.8164 -81.1092 291° West 160 184 5,900  Level Miami Center
01:07PM 26.8486 -81.1453 315° West 155 178 5,900  Level Miami Center
01:08PM 26.8828 -81.1861 313° West 160 184 5,900  Level Miami Center
01:10PM 26.9216 -81.2238 319° Northwest  Level FlightAware Approximate
01:17PM 27.1225 -81.4374 315° West  Level FlightAware Approximate
01:18PM 27.1502 -81.4691 315° West  Level FlightAware Approximate
01:19PM 27.1779 -81.5008 315° West  Level FlightAware Approximate
01:20PM 27.2056 -81.5325 314° West  Level FlightAware Approximate
01:21PM 27.2333 -81.5642 314° West  Level FlightAware Approximate
01:22PM 27.2617 -81.5950 318° Northwest  Level FlightAware Approximate
01:23PM 27.2913 -81.6246 318° Northwest  Level FlightAware Approximate
01:24PM 27.3190 -81.6562 313° West  Level FlightAware Approximate
01:25PM 27.3461 -81.6886 313° West  Level FlightAware Approximate
01:26PM 27.3731 -81.7211 313° West  Level FlightAware Approximate
01:27PM 27.3998 -81.7539 312° West  Level FlightAware Approximate
01:28PM 27.4263 -81.7870 312° West  Level FlightAware Approximate
01:29PM 27.4530 -81.8197 318° Northwest  Level FlightAware Approximate
01:30PM 27.4826 -81.8493 318° Northwest  Level FlightAware Approximate
01:31PM 27.5000 -81.8667 318° Northwest  Level FlightAware Approximate
01:32PM 27.5149 -81.8805 318° Northwest  Level Estimated
01:33PM 27.5149 -81.8805 318° Northwest  Level Estimated
01:34PM 27.5149 -81.8805 318° Northwest  Level Estimated
01:35PM 27.5149 -81.8805 318° Northwest  Level Estimated
01:36PM 27.5149 -81.8805 318° Northwest  Level Estimated
01:37PM 27.5149 -81.8805 318° Northwest  Level Estimated
01:38PM 27.5149 -81.8805 318° Northwest  Level Estimated
01:39PM 27.5149 -81.8805 318° Northwest  Level Estimated
01:40PM 27.5149 -81.8805 318° Northwest  Level Estimated
01:41PM 27.5149 -81.8805 318° Northwest  Level Estimated
01:42PM 27.5149 -81.8805 318° Northwest  Level Estimated
01:43PM 27.5149 -81.8805 318° Northwest  Level Estimated
01:44PM 27.5149 -81.8805 318° Northwest  Level Estimated
01:45PM 27.5149 -81.8805 318° Northwest  Level Estimated
01:46PM 27.5149 -81.8805 318° Northwest  Level Estimated
01:47PM 27.5149 -81.8805 318° Northwest  Level Estimated